sensor_id;sensor_type;location;lat;lon;timestamp;temperature;humidity
1534;DHT22;760;48.822;9.304;2023-02-28T05:04:28;-0.10;99.90
1534;DHT22;760;48.822;9.304;2023-02-28T05:06:54;-0.10;99.90
1534;DHT22;760;48.822;9.304;2023-02-28T05:09:20;-0.10;99.90
1534;DHT22;760;48.822;9.304;2023-02-28T05:11:46;-0.10;99.90
1534;DHT22;760;48.822;9.304;2023-02-28T05:14:13;-0.10;99.90
1534;DHT22;760;48.822;9.304;2023-02-28T05:16:39;0.00;99.90
1534;DHT22;760;48.822;9.304;2023-02-28T05:19:05;0.00;99.90
1534;DHT22;760;48.822;9.304;2023-02-28T05:21:36;-0.10;99.90
1534;DHT22;760;48.822;9.304;2023-02-28T05:24:05;-0.10;99.90
1534;DHT22;760;48.822;9.304;2023-02-28T05:26:34;-0.10;99.90
1534;DHT22;760;48.822;9.304;2023-02-28T05:29:00;-0.10;99.90
1534;DHT22;760;48.822;9.304;2023-02-28T05:31:26;0.00;99.90
1534;DHT22;760;48.822;9.304;2023-02-28T05:33:52;-0.10;99.90
1534;DHT22;760;48.822;9.304;2023-02-28T05:36:18;0.00;99.90
1534;DHT22;760;48.822;9.304;2023-02-28T05:38:46;0.00;99.90
1534;DHT22;760;48.822;9.304;2023-02-28T05:41:12;-0.10;99.90
1534;DHT22;760;48.822;9.304;2023-02-28T05:43:37;0.00;99.90
1534;DHT22;760;48.822;9.304;2023-02-28T05:46:08;0.00;99.90
1534;DHT22;760;48.822;9.304;2023-02-28T05:48:35;0.00;99.90
1534;DHT22;760;48.822;9.304;2023-02-28T05:51:02;0.10;99.90
1534;DHT22;760;48.822;9.304;2023-02-28T05:53:28;0.10;99.90
1534;DHT22;760;48.822;9.304;2023-02-28T05:55:54;0.10;99.90
1534;DHT22;760;48.822;9.304;2023-02-28T05:58:20;0.10;99.90
1534;DHT22;760;48.822;9.304;2023-02-28T06:00:47;0.10;99.90
1534;DHT22;760;48.822;9.304;2023-02-28T06:03:12;0.10;99.90
1534;DHT22;760;48.822;9.304;2023-02-28T06:05:38;0.10;99.90
1534;DHT22;760;48.822;9.304;2023-02-28T06:08:04;0.10;99.90
1534;DHT22;760;48.822;9.304;2023-02-28T06:10:35;0.10;99.90
1534;DHT22;760;48.822;9.304;2023-02-28T06:13:01;0.10;99.90
1534;DHT22;760;48.822;9.304;2023-02-28T06:15:30;0.10;99.90
1534;DHT22;760;48.822;9.304;2023-02-28T06:17:56;0.20;99.90
1534;DHT22;760;48.822;9.304;2023-02-28T06:20:23;0.10;99.90
1534;DHT22;760;48.822;9.304;2023-02-28T06:22:49;0.20;99.90
1534;DHT22;760;48.822;9.304;2023-02-28T06:25:16;0.20;99.90
1534;DHT22;760;48.822;9.304;2023-02-28T06:27:42;0.20;99.90
1534;DHT22;760;48.822;9.304;2023-02-28T06:30:10;0.20;99.90
1534;DHT22;760;48.822;9.304;2023-02-28T06:32:36;0.20;99.90
1534;DHT22;760;48.822;9.304;2023-02-28T06:35:02;0.30;99.90
1534;DHT22;760;48.822;9.304;2023-02-28T06:37:30;0.30;99.90
1534;DHT22;760;48.822;9.304;2023-02-28T06:39:55;0.30;99.90
1534;DHT22;760;48.822;9.304;2023-02-28T06:42:22;0.30;99.90
1534;DHT22;760;48.822;9.304;2023-02-28T06:44:51;0.30;99.90
1534;DHT22;760;48.822;9.304;2023-02-28T06:47:16;0.30;99.90
1534;DHT22;760;48.822;9.304;2023-02-28T06:49:42;0.40;99.90
1534;DHT22;760;48.822;9.304;2023-02-28T06:52:10;0.40;99.90
1534;DHT22;760;48.822;9.304;2023-02-28T06:54:36;0.40;99.90
1534;DHT22;760;48.822;9.304;2023-02-28T06:57:02;0.40;99.90
1534;DHT22;760;48.822;9.304;2023-02-28T06:59:27;0.50;99.90
1534;DHT22;760;48.822;9.304;2023-02-28T07:01:53;0.50;99.90
1534;DHT22;760;48.822;9.304;2023-02-28T07:04:20;0.50;99.90
1534;DHT22;760;48.822;9.304;2023-02-28T07:06:46;0.50;99.90
1534;DHT22;760;48.822;9.304;2023-02-28T07:09:11;0.60;99.90
1534;DHT22;760;48.822;9.304;2023-02-28T07:11:37;0.60;99.90
1534;DHT22;760;48.822;9.304;2023-02-28T07:14:03;0.70;99.90
1534;DHT22;760;48.822;9.304;2023-02-28T07:16:28;0.70;99.90
1534;DHT22;760;48.822;9.304;2023-02-28T07:18:54;0.70;99.90
1534;DHT22;760;48.822;9.304;2023-02-28T07:21:20;0.80;99.90
1534;DHT22;760;48.822;9.304;2023-02-28T07:23:46;0.80;99.90
1534;DHT22;760;48.822;9.304;2023-02-28T07:26:15;0.80;99.90
1534;DHT22;760;48.822;9.304;2023-02-28T07:28:42;0.80;99.90
1534;DHT22;760;48.822;9.304;2023-02-28T07:31:08;0.80;99.90
1534;DHT22;760;48.822;9.304;2023-02-28T07:33:35;0.90;99.90
1534;DHT22;760;48.822;9.304;2023-02-28T07:36:05;0.80;99.90
1534;DHT22;760;48.822;9.304;2023-02-28T07:38:36;0.80;99.90
1534;DHT22;760;48.822;9.304;2023-02-28T07:41:03;0.90;99.90
1534;DHT22;760;48.822;9.304;2023-02-28T07:43:33;0.90;99.90
1534;DHT22;760;48.822;9.304;2023-02-28T07:46:07;0.90;99.90
1534;DHT22;760;48.822;9.304;2023-02-28T07:48:33;0.90;99.90
1534;DHT22;760;48.822;9.304;2023-02-28T07:51:00;0.90;99.90
1534;DHT22;760;48.822;9.304;2023-02-28T07:53:26;1.00;99.90
1534;DHT22;760;48.822;9.304;2023-02-28T07:55:56;1.00;99.90
1534;DHT22;760;48.822;9.304;2023-02-28T07:58:23;1.00;99.90
1534;DHT22;760;48.822;9.304;2023-02-28T08:00:49;1.00;99.90
1534;DHT22;760;48.822;9.304;2023-02-28T08:03:16;1.00;99.90
1534;DHT22;760;48.822;9.304;2023-02-28T08:05:42;1.00;99.90
1534;DHT22;760;48.822;9.304;2023-02-28T08:08:08;1.10;99.90
1534;DHT22;760;48.822;9.304;2023-02-28T08:10:34;1.10;99.90
1534;DHT22;760;48.822;9.304;2023-02-28T08:13:00;1.20;99.90
1534;DHT22;760;48.822;9.304;2023-02-28T08:15:26;1.20;99.90
1534;DHT22;760;48.822;9.304;2023-02-28T08:17:51;1.20;99.90
1534;DHT22;760;48.822;9.304;2023-02-28T08:20:18;1.20;99.90
1534;DHT22;760;48.822;9.304;2023-02-28T08:22:44;1.20;99.80
1534;DHT22;760;48.822;9.304;2023-02-28T08:25:10;1.20;99.80
1534;DHT22;760;48.822;9.304;2023-02-28T08:27:36;1.20;99.90
1534;DHT22;760;48.822;9.304;2023-02-28T08:30:02;1.30;99.90
1534;DHT22;760;48.822;9.304;2023-02-28T08:32:28;1.40;99.90
1534;DHT22;760;48.822;9.304;2023-02-28T08:34:53;1.40;99.60
1534;DHT22;760;48.822;9.304;2023-02-28T08:37:19;1.40;99.60
1534;DHT22;760;48.822;9.304;2023-02-28T08:39:45;1.40;99.30
1534;DHT22;760;48.822;9.304;2023-02-28T08:42:11;1.40;99.20
1534;DHT22;760;48.822;9.304;2023-02-28T08:44:36;1.40;99.20
1534;DHT22;760;48.822;9.304;2023-02-28T08:47:02;1.40;99.20
1534;DHT22;760;48.822;9.304;2023-02-28T08:49:27;1.50;99.30
1534;DHT22;760;48.822;9.304;2023-02-28T08:51:54;1.50;99.20
1534;DHT22;760;48.822;9.304;2023-02-28T08:54:20;1.50;99.10
1534;DHT22;760;48.822;9.304;2023-02-28T08:56:46;1.60;98.80
1534;DHT22;760;48.822;9.304;2023-02-28T08:59:12;1.60;98.90
1534;DHT22;760;48.822;9.304;2023-02-28T09:01:38;1.80;98.80
1534;DHT22;760;48.822;9.304;2023-02-28T09:04:04;1.80;98.70
1534;DHT22;760;48.822;9.304;2023-02-28T09:06:32;1.90;98.00
1534;DHT22;760;48.822;9.304;2023-02-28T09:08:58;1.80;97.80
1534;DHT22;760;48.822;9.304;2023-02-28T09:11:25;1.90;97.90
1534;DHT22;760;48.822;9.304;2023-02-28T09:13:50;1.90;97.80
1534;DHT22;760;48.822;9.304;2023-02-28T09:16:16;2.00;97.80
1534;DHT22;760;48.822;9.304;2023-02-28T09:18:42;2.10;97.70
1534;DHT22;760;48.822;9.304;2023-02-28T09:21:11;2.10;97.50
1534;DHT22;760;48.822;9.304;2023-02-28T09:23:40;2.20;97.50
1534;DHT22;760;48.822;9.304;2023-02-28T09:26:05;2.30;96.90
1534;DHT22;760;48.822;9.304;2023-02-28T09:28:31;2.30;96.80
1534;DHT22;760;48.822;9.304;2023-02-28T09:30:57;2.30;96.70
1534;DHT22;760;48.822;9.304;2023-02-28T09:33:24;2.40;96.80
1534;DHT22;760;48.822;9.304;2023-02-28T09:35:56;2.40;96.70
1534;DHT22;760;48.822;9.304;2023-02-28T09:38:22;2.50;96.60
1534;DHT22;760;48.822;9.304;2023-02-28T09:40:57;2.60;96.40
1534;DHT22;760;48.822;9.304;2023-02-28T09:43:28;2.70;96.10
1534;DHT22;760;48.822;9.304;2023-02-28T09:45:59;2.80;96.00
1534;DHT22;760;48.822;9.304;2023-02-28T09:48:31;2.90;95.90
1534;DHT22;760;48.822;9.304;2023-02-28T09:51:05;2.80;95.20
1534;DHT22;760;48.822;9.304;2023-02-28T09:53:36;2.90;95.10
1534;DHT22;760;48.822;9.304;2023-02-28T09:56:08;2.80;95.20
1534;DHT22;760;48.822;9.304;2023-02-28T09:58:37;2.80;95.50
1534;DHT22;760;48.822;9.304;2023-02-28T10:01:28;2.90;95.60
1534;DHT22;760;48.822;9.304;2023-02-28T10:04:08;3.00;95.70
1534;DHT22;760;48.822;9.304;2023-02-28T10:06:51;3.10;95.30
1534;DHT22;760;48.822;9.304;2023-02-28T10:09:27;3.20;94.90
1534;DHT22;760;48.822;9.304;2023-02-28T10:12:02;3.10;94.80
1534;DHT22;760;48.822;9.304;2023-02-28T10:14:30;3.20;94.90
1534;DHT22;760;48.822;9.304;2023-02-28T10:17:11;3.30;94.70
1534;DHT22;760;48.822;9.304;2023-02-28T10:22:21;3.50;94.70
1534;DHT22;760;48.822;9.304;2023-02-28T10:24:50;3.70;94.10
1534;DHT22;760;48.822;9.304;2023-02-28T10:27:23;3.80;93.80
1534;DHT22;760;48.822;9.304;2023-02-28T10:29:54;3.80;93.80
1534;DHT22;760;48.822;9.304;2023-02-28T10:32:26;3.80;94.00
1534;DHT22;760;48.822;9.304;2023-02-28T10:37:27;4.00;93.70
1534;DHT22;760;48.822;9.304;2023-02-28T10:39:53;4.10;93.30
1534;DHT22;760;48.822;9.304;2023-02-28T10:42:27;4.00;93.20
1534;DHT22;760;48.822;9.304;2023-02-28T10:45:15;4.10;93.60
1534;DHT22;760;48.822;9.304;2023-02-28T10:47:59;4.40;93.30
1534;DHT22;760;48.822;9.304;2023-02-28T10:59:31;6.50;91.00
1534;DHT22;760;48.822;9.304;2023-02-28T11:01:43;7.20;89.30
1534;DHT22;760;48.822;9.304;2023-02-28T11:04:36;7.50;86.80
1534;DHT22;760;48.822;9.304;2023-02-28T11:07:20;7.60;85.60
1534;DHT22;760;48.822;9.304;2023-02-28T11:09:48;7.70;85.00
1534;DHT22;760;48.822;9.304;2023-02-28T11:12:25;7.80;85.30
1534;DHT22;760;48.822;9.304;2023-02-28T11:15:05;7.90;82.90
1534;DHT22;760;48.822;9.304;2023-02-28T11:17:32;8.00;83.40
1534;DHT22;760;48.822;9.304;2023-02-28T11:20:04;8.10;83.40
1534;DHT22;760;48.822;9.304;2023-02-28T11:22:35;8.20;82.30
1534;DHT22;760;48.822;9.304;2023-02-28T11:25:09;8.10;81.20
1534;DHT22;760;48.822;9.304;2023-02-28T11:27:51;7.80;81.70
1534;DHT22;760;48.822;9.304;2023-02-28T11:30:46;7.50;82.30
1534;DHT22;760;48.822;9.304;2023-02-28T11:36:03;6.70;84.10
1534;DHT22;760;48.822;9.304;2023-02-28T11:38:29;6.50;84.40
1534;DHT22;760;48.822;9.304;2023-02-28T11:41:14;6.30;85.20
1534;DHT22;760;48.822;9.304;2023-02-28T11:46:30;6.00;85.30
1534;DHT22;760;48.822;9.304;2023-02-28T11:49:32;5.90;86.30
1534;DHT22;760;48.822;9.304;2023-02-28T12:06:35;5.70;87.80
1534;DHT22;760;48.822;9.304;2023-02-28T12:09:20;5.70;87.90
1534;DHT22;760;48.822;9.304;2023-02-28T12:17:34;5.90;87.70
1534;DHT22;760;48.822;9.304;2023-02-28T12:28:20;6.10;86.50
1534;DHT22;760;48.822;9.304;2023-02-28T12:31:17;6.10;86.30
1534;DHT22;760;48.822;9.304;2023-02-28T12:33:47;6.00;87.10
1534;DHT22;760;48.822;9.304;2023-02-28T12:36:19;6.20;87.00
1534;DHT22;760;48.822;9.304;2023-02-28T12:38:54;6.20;86.30
1534;DHT22;760;48.822;9.304;2023-02-28T12:41:39;6.10;85.60
1534;DHT22;760;48.822;9.304;2023-02-28T12:44:12;6.00;86.00
1534;DHT22;760;48.822;9.304;2023-02-28T12:46:54;5.90;86.60
1534;DHT22;760;48.822;9.304;2023-02-28T12:49:30;6.00;87.10
1534;DHT22;760;48.822;9.304;2023-02-28T12:52:00;6.00;86.90
1534;DHT22;760;48.822;9.304;2023-02-28T12:54:38;6.10;85.90
1534;DHT22;760;48.822;9.304;2023-02-28T12:57:22;6.10;85.40
1534;DHT22;760;48.822;9.304;2023-02-28T12:59:51;6.00;85.80
1534;DHT22;760;48.822;9.304;2023-02-28T13:10:50;5.90;86.00
1534;DHT22;760;48.822;9.304;2023-02-28T13:13:27;5.90;86.30
1534;DHT22;760;48.822;9.304;2023-02-28T13:16:10;5.90;86.30
1534;DHT22;760;48.822;9.304;2023-02-28T13:18:42;6.00;86.30
1534;DHT22;760;48.822;9.304;2023-02-28T13:21:21;6.00;86.40
1534;DHT22;760;48.822;9.304;2023-02-28T13:34:31;6.10;85.10
1534;DHT22;760;48.822;9.304;2023-02-28T13:39:47;6.20;85.10
1534;DHT22;760;48.822;9.304;2023-02-28T13:42:35;6.10;85.10
1534;DHT22;760;48.822;9.304;2023-02-28T13:52:50;6.20;84.70
1534;DHT22;760;48.822;9.304;2023-02-28T14:06:28;6.50;84.80
1534;DHT22;760;48.822;9.304;2023-02-28T14:09:02;6.50;84.40
1534;DHT22;760;48.822;9.304;2023-02-28T14:11:38;6.50;83.80
1534;DHT22;760;48.822;9.304;2023-02-28T14:14:05;6.50;83.80
1534;DHT22;760;48.822;9.304;2023-02-28T14:16:44;6.40;84.70
1534;DHT22;760;48.822;9.304;2023-02-28T14:27:47;6.60;84.90
1534;DHT22;760;48.822;9.304;2023-02-28T14:33:27;6.60;84.50
1534;DHT22;760;48.822;9.304;2023-02-28T14:36:26;6.60;84.50
1534;DHT22;760;48.822;9.304;2023-02-28T14:38:56;6.60;84.30
1534;DHT22;760;48.822;9.304;2023-02-28T14:41:36;6.50;84.60
1534;DHT22;760;48.822;9.304;2023-02-28T14:46:41;6.50;84.90
1534;DHT22;760;48.822;9.304;2023-02-28T14:49:27;6.50;85.10
1534;DHT22;760;48.822;9.304;2023-02-28T14:52:03;6.50;85.30
1534;DHT22;760;48.822;9.304;2023-02-28T14:54:30;6.40;85.20
1534;DHT22;760;48.822;9.304;2023-02-28T14:56:56;6.40;85.10
1534;DHT22;760;48.822;9.304;2023-02-28T14:59:33;6.40;85.30
1534;DHT22;760;48.822;9.304;2023-02-28T15:02:21;6.40;85.30
1534;DHT22;760;48.822;9.304;2023-02-28T15:04:57;6.30;85.80
1534;DHT22;760;48.822;9.304;2023-02-28T15:07:24;6.30;85.90
1534;DHT22;760;48.822;9.304;2023-02-28T15:12:57;6.20;86.20
1534;DHT22;760;48.822;9.304;2023-02-28T15:21:09;6.20;86.50
1534;DHT22;760;48.822;9.304;2023-02-28T15:23:36;6.10;86.70
1534;DHT22;760;48.822;9.304;2023-02-28T15:26:03;6.10;86.60
1534;DHT22;760;48.822;9.304;2023-02-28T15:28:30;6.10;87.00
1534;DHT22;760;48.822;9.304;2023-02-28T15:31:00;6.00;86.80
1534;DHT22;760;48.822;9.304;2023-02-28T15:33:31;6.00;86.80
1534;DHT22;760;48.822;9.304;2023-02-28T15:36:14;6.00;87.10
1534;DHT22;760;48.822;9.304;2023-02-28T15:38:43;5.90;87.70
1534;DHT22;760;48.822;9.304;2023-02-28T15:41:25;5.90;87.90
1534;DHT22;760;48.822;9.304;2023-02-28T15:44:14;5.90;87.60
1534;DHT22;760;48.822;9.304;2023-02-28T15:46:44;5.90;87.90
1534;DHT22;760;48.822;9.304;2023-02-28T15:49:19;5.90;88.30
1534;DHT22;760;48.822;9.304;2023-02-28T15:51:45;5.90;88.50
1534;DHT22;760;48.822;9.304;2023-02-28T15:54:18;5.90;88.50
1534;DHT22;760;48.822;9.304;2023-02-28T15:56:46;5.80;88.30
1534;DHT22;760;48.822;9.304;2023-02-28T15:59:20;5.80;88.40
1534;DHT22;760;48.822;9.304;2023-02-28T16:01:47;5.70;88.40
1534;DHT22;760;48.822;9.304;2023-02-28T16:04:18;5.70;88.70
1534;DHT22;760;48.822;9.304;2023-02-28T16:06:45;5.70;89.00
1534;DHT22;760;48.822;9.304;2023-02-28T16:09:16;5.60;89.00
1534;DHT22;760;48.822;9.304;2023-02-28T16:11:47;5.60;89.10
1534;DHT22;760;48.822;9.304;2023-02-28T16:14:16;5.60;89.20
1534;DHT22;760;48.822;9.304;2023-02-28T16:16:48;5.50;89.30
1534;DHT22;760;48.822;9.304;2023-02-28T16:19:14;5.40;89.60
1534;DHT22;760;48.822;9.304;2023-02-28T16:21:40;5.40;89.80
1534;DHT22;760;48.822;9.304;2023-02-28T16:24:06;5.40;90.10
1534;DHT22;760;48.822;9.304;2023-02-28T16:26:32;5.30;90.20
1534;DHT22;760;48.822;9.304;2023-02-28T16:29:00;5.30;90.00
1534;DHT22;760;48.822;9.304;2023-02-28T16:31:27;5.30;90.10
1534;DHT22;760;48.822;9.304;2023-02-28T16:33:53;5.20;90.20
1534;DHT22;760;48.822;9.304;2023-02-28T16:36:22;5.20;90.30
1534;DHT22;760;48.822;9.304;2023-02-28T16:38:50;5.10;90.20
1534;DHT22;760;48.822;9.304;2023-02-28T16:41:24;5.10;90.30
1534;DHT22;760;48.822;9.304;2023-02-28T16:43:53;5.00;90.30
1534;DHT22;760;48.822;9.304;2023-02-28T16:46:20;5.00;90.50
1534;DHT22;760;48.822;9.304;2023-02-28T16:48:47;4.90;90.50
1534;DHT22;760;48.822;9.304;2023-02-28T16:51:17;4.90;90.60
1534;DHT22;760;48.822;9.304;2023-02-28T16:53:44;4.90;90.70
1534;DHT22;760;48.822;9.304;2023-02-28T16:56:21;4.80;90.90
1534;DHT22;760;48.822;9.304;2023-02-28T16:58:48;4.70;90.90
1534;DHT22;760;48.822;9.304;2023-02-28T17:01:14;4.70;91.10
1534;DHT22;760;48.822;9.304;2023-02-28T17:03:40;4.60;91.10
1534;DHT22;760;48.822;9.304;2023-02-28T17:06:13;4.60;91.20
1534;DHT22;760;48.822;9.304;2023-02-28T17:08:41;4.60;91.20
1534;DHT22;760;48.822;9.304;2023-02-28T17:11:07;4.50;91.30
1534;DHT22;760;48.822;9.304;2023-02-28T17:13:33;4.50;91.50
1534;DHT22;760;48.822;9.304;2023-02-28T17:16:00;4.50;91.50
1534;DHT22;760;48.822;9.304;2023-02-28T17:18:26;4.40;91.60
1534;DHT22;760;48.822;9.304;2023-02-28T17:20:54;4.40;91.70
1534;DHT22;760;48.822;9.304;2023-02-28T17:23:21;4.40;91.80
1534;DHT22;760;48.822;9.304;2023-02-28T17:25:47;4.30;91.80
1534;DHT22;760;48.822;9.304;2023-02-28T17:28:19;4.30;91.90
1534;DHT22;760;48.822;9.304;2023-02-28T17:30:44;4.20;92.00
1534;DHT22;760;48.822;9.304;2023-02-28T17:33:12;4.20;92.10
1534;DHT22;760;48.822;9.304;2023-02-28T17:35:39;4.20;92.20
1534;DHT22;760;48.822;9.304;2023-02-28T17:38:07;4.10;92.10
1534;DHT22;760;48.822;9.304;2023-02-28T17:40:33;4.10;92.30
1534;DHT22;760;48.822;9.304;2023-02-28T17:42:59;4.00;92.40
1534;DHT22;760;48.822;9.304;2023-02-28T17:45:25;4.00;92.50
1534;DHT22;760;48.822;9.304;2023-02-28T17:47:51;3.90;92.60
1534;DHT22;760;48.822;9.304;2023-02-28T17:50:19;3.90;92.70
1534;DHT22;760;48.822;9.304;2023-02-28T17:52:45;3.90;92.70
1534;DHT22;760;48.822;9.304;2023-02-28T17:55:11;3.80;92.70
1534;DHT22;760;48.822;9.304;2023-02-28T17:57:37;3.80;92.80
1534;DHT22;760;48.822;9.304;2023-02-28T18:00:04;3.70;92.90
1534;DHT22;760;48.822;9.304;2023-02-28T18:02:32;3.70;93.10
1534;DHT22;760;48.822;9.304;2023-02-28T18:04:58;3.70;93.30
1534;DHT22;760;48.822;9.304;2023-02-28T18:07:24;3.70;93.30
1534;DHT22;760;48.822;9.304;2023-02-28T18:09:50;3.60;93.40
1534;DHT22;760;48.822;9.304;2023-02-28T18:12:15;3.60;93.50
1534;DHT22;760;48.822;9.304;2023-02-28T18:14:41;3.50;93.60
1534;DHT22;760;48.822;9.304;2023-02-28T18:17:09;3.50;93.60
1534;DHT22;760;48.822;9.304;2023-02-28T18:19:37;3.50;93.60
1534;DHT22;760;48.822;9.304;2023-02-28T18:22:03;3.40;93.70
1534;DHT22;760;48.822;9.304;2023-02-28T18:24:31;3.40;93.70
1534;DHT22;760;48.822;9.304;2023-02-28T18:26:57;3.30;93.90
1534;DHT22;760;48.822;9.304;2023-02-28T18:29:25;3.30;94.10
1534;DHT22;760;48.822;9.304;2023-02-28T18:31:52;3.20;93.90
1534;DHT22;760;48.822;9.304;2023-02-28T18:34:18;3.20;94.00
1534;DHT22;760;48.822;9.304;2023-02-28T18:36:44;3.10;94.00
1534;DHT22;760;48.822;9.304;2023-02-28T18:39:13;3.00;94.00
1534;DHT22;760;48.822;9.304;2023-02-28T18:41:39;3.00;94.10
1534;DHT22;760;48.822;9.304;2023-02-28T18:44:04;2.90;94.30
1534;DHT22;760;48.822;9.304;2023-02-28T18:46:30;2.80;94.30
1534;DHT22;760;48.822;9.304;2023-02-28T18:48:55;2.80;94.30
1534;DHT22;760;48.822;9.304;2023-02-28T18:51:24;2.70;94.40
1534;DHT22;760;48.822;9.304;2023-02-28T18:53:50;2.60;94.50
1534;DHT22;760;48.822;9.304;2023-02-28T18:56:18;2.50;94.70
1534;DHT22;760;48.822;9.304;2023-02-28T18:58:44;2.50;94.70
1534;DHT22;760;48.822;9.304;2023-02-28T19:01:17;2.40;94.70
1534;DHT22;760;48.822;9.304;2023-02-28T19:03:43;2.30;94.90
1534;DHT22;760;48.822;9.304;2023-02-28T19:06:10;2.30;94.90
1534;DHT22;760;48.822;9.304;2023-02-28T19:08:36;2.30;95.10
1534;DHT22;760;48.822;9.304;2023-02-28T19:11:09;2.20;95.20
1534;DHT22;760;48.822;9.304;2023-02-28T19:13:35;2.20;95.50
1534;DHT22;760;48.822;9.304;2023-02-28T19:16:03;2.10;95.70
1534;DHT22;760;48.822;9.304;2023-02-28T19:18:29;2.10;96.00
1534;DHT22;760;48.822;9.304;2023-02-28T19:20:55;2.00;96.30
1534;DHT22;760;48.822;9.304;2023-02-28T19:23:20;2.00;96.60
1534;DHT22;760;48.822;9.304;2023-02-28T19:25:46;2.00;96.60
1534;DHT22;760;48.822;9.304;2023-02-28T19:28:12;1.90;96.80
1534;DHT22;760;48.822;9.304;2023-02-28T19:30:38;1.90;97.30
1534;DHT22;760;48.822;9.304;2023-02-28T19:33:04;1.80;97.40
1534;DHT22;760;48.822;9.304;2023-02-28T19:35:29;1.80;97.30
1534;DHT22;760;48.822;9.304;2023-02-28T19:37:55;1.80;97.30
1534;DHT22;760;48.822;9.304;2023-02-28T19:40:21;1.80;97.60
1534;DHT22;760;48.822;9.304;2023-02-28T19:42:46;1.70;97.80
1534;DHT22;760;48.822;9.304;2023-02-28T19:45:12;1.60;97.90
1534;DHT22;760;48.822;9.304;2023-02-28T19:47:39;1.60;98.30
1534;DHT22;760;48.822;9.304;2023-02-28T19:50:06;1.60;98.30
1534;DHT22;760;48.822;9.304;2023-02-28T19:52:31;1.60;98.50
1534;DHT22;760;48.822;9.304;2023-02-28T19:54:58;1.70;98.40
1534;DHT22;760;48.822;9.304;2023-02-28T19:57:24;1.80;98.20
1534;DHT22;760;48.822;9.304;2023-02-28T19:59:50;1.90;98.00
1534;DHT22;760;48.822;9.304;2023-02-28T20:02:17;2.00;97.80
1534;DHT22;760;48.822;9.304;2023-02-28T20:04:46;2.00;97.70
1534;DHT22;760;48.822;9.304;2023-02-28T20:07:17;2.00;97.50
1534;DHT22;760;48.822;9.304;2023-02-28T20:09:47;2.10;97.60
1534;DHT22;760;48.822;9.304;2023-02-28T20:12:13;2.10;97.60
1534;DHT22;760;48.822;9.304;2023-02-28T20:14:41;2.10;97.60
1534;DHT22;760;48.822;9.304;2023-02-28T20:17:07;2.00;97.60
1534;DHT22;760;48.822;9.304;2023-02-28T20:19:32;2.00;97.80
1534;DHT22;760;48.822;9.304;2023-02-28T20:21:58;1.90;97.90
1534;DHT22;760;48.822;9.304;2023-02-28T20:24:25;1.80;97.90
1534;DHT22;760;48.822;9.304;2023-02-28T20:26:52;1.70;98.10
1534;DHT22;760;48.822;9.304;2023-02-28T20:29:18;1.60;98.20
1534;DHT22;760;48.822;9.304;2023-02-28T20:31:43;1.60;98.60
1534;DHT22;760;48.822;9.304;2023-02-28T20:34:09;1.50;98.60
1534;DHT22;760;48.822;9.304;2023-02-28T20:36:35;1.40;99.10
1534;DHT22;760;48.822;9.304;2023-02-28T20:39:00;1.30;99.40
1534;DHT22;760;48.822;9.304;2023-02-28T20:41:26;1.30;99.60
1534;DHT22;760;48.822;9.304;2023-02-28T20:43:55;1.20;99.80
1534;DHT22;760;48.822;9.304;2023-02-28T20:46:27;1.20;99.90
1534;DHT22;760;48.822;9.304;2023-02-28T20:48:52;1.10;99.90
1534;DHT22;760;48.822;9.304;2023-02-28T20:51:18;1.10;99.90
1534;DHT22;760;48.822;9.304;2023-02-28T20:53:44;1.00;99.90
1534;DHT22;760;48.822;9.304;2023-02-28T20:56:18;1.00;99.90
1534;DHT22;760;48.822;9.304;2023-02-28T20:58:46;0.90;99.90
1534;DHT22;760;48.822;9.304;2023-02-28T21:01:20;0.90;99.90
1534;DHT22;760;48.822;9.304;2023-02-28T21:03:53;1.00;99.90
1534;DHT22;760;48.822;9.304;2023-02-28T21:06:20;1.00;99.90
1534;DHT22;760;48.822;9.304;2023-02-28T21:08:47;1.00;99.90
1534;DHT22;760;48.822;9.304;2023-02-28T21:11:19;0.90;99.90
1534;DHT22;760;48.822;9.304;2023-02-28T21:13:46;0.90;99.90
1534;DHT22;760;48.822;9.304;2023-02-28T21:16:14;0.90;99.90
1534;DHT22;760;48.822;9.304;2023-02-28T21:18:41;0.80;99.90
1534;DHT22;760;48.822;9.304;2023-02-28T21:21:10;0.80;99.90
1534;DHT22;760;48.822;9.304;2023-02-28T21:23:36;0.80;99.90
1534;DHT22;760;48.822;9.304;2023-02-28T21:26:06;0.80;99.90
1534;DHT22;760;48.822;9.304;2023-02-28T21:28:33;0.70;99.90
1534;DHT22;760;48.822;9.304;2023-02-28T21:31:12;0.70;99.90
1534;DHT22;760;48.822;9.304;2023-02-28T21:33:39;0.60;99.90
1534;DHT22;760;48.822;9.304;2023-02-28T21:36:13;0.60;99.90
1534;DHT22;760;48.822;9.304;2023-02-28T21:38:40;0.50;99.90
1534;DHT22;760;48.822;9.304;2023-02-28T21:41:08;0.50;99.90
1534;DHT22;760;48.822;9.304;2023-02-28T21:43:34;0.50;99.90
1534;DHT22;760;48.822;9.304;2023-02-28T21:46:05;0.40;99.90
1534;DHT22;760;48.822;9.304;2023-02-28T21:48:31;0.40;99.90
1534;DHT22;760;48.822;9.304;2023-02-28T21:50:58;0.40;99.90
1534;DHT22;760;48.822;9.304;2023-02-28T21:53:27;0.40;99.90
1534;DHT22;760;48.822;9.304;2023-02-28T21:55:52;0.40;99.90
1534;DHT22;760;48.822;9.304;2023-02-28T21:58:18;0.40;99.90
1534;DHT22;760;48.822;9.304;2023-02-28T22:00:44;0.40;99.90
1534;DHT22;760;48.822;9.304;2023-02-28T22:03:11;0.40;99.90
1534;DHT22;760;48.822;9.304;2023-02-28T22:05:36;0.40;99.90
1534;DHT22;760;48.822;9.304;2023-02-28T22:08:02;0.40;99.90
1534;DHT22;760;48.822;9.304;2023-02-28T22:10:28;0.50;99.90
1534;DHT22;760;48.822;9.304;2023-02-28T22:12:53;0.50;99.90
1534;DHT22;760;48.822;9.304;2023-02-28T22:15:19;0.50;99.90
1534;DHT22;760;48.822;9.304;2023-02-28T22:17:45;0.50;99.90
1534;DHT22;760;48.822;9.304;2023-02-28T22:20:11;0.50;99.90
1534;DHT22;760;48.822;9.304;2023-02-28T22:22:39;0.50;99.90
1534;DHT22;760;48.822;9.304;2023-02-28T22:25:05;0.50;99.90
1534;DHT22;760;48.822;9.304;2023-02-28T22:27:32;0.50;99.90
1534;DHT22;760;48.822;9.304;2023-02-28T22:29:58;0.50;99.90
1534;DHT22;760;48.822;9.304;2023-02-28T22:32:24;0.60;99.90
1534;DHT22;760;48.822;9.304;2023-02-28T22:34:50;0.60;99.90
1534;DHT22;760;48.822;9.304;2023-02-28T22:37:16;0.60;99.90
1534;DHT22;760;48.822;9.304;2023-02-28T22:39:41;0.50;99.90
1534;DHT22;760;48.822;9.304;2023-02-28T22:42:07;0.50;99.90
1534;DHT22;760;48.822;9.304;2023-02-28T22:44:34;0.50;99.90
1534;DHT22;760;48.822;9.304;2023-02-28T22:47:00;0.50;99.90
1534;DHT22;760;48.822;9.304;2023-02-28T22:49:25;0.40;99.90
1534;DHT22;760;48.822;9.304;2023-02-28T22:51:51;0.40;99.90
1534;DHT22;760;48.822;9.304;2023-02-28T22:54:17;0.40;99.90
1534;DHT22;760;48.822;9.304;2023-02-28T22:56:42;0.40;99.90
1534;DHT22;760;48.822;9.304;2023-02-28T22:59:12;0.30;99.90
